Time;durP1;ratioP1;P1;durP2;ratioP2;P2;SDS_P1;SDS_P2;PMS_P1;PMS_P2;Temp;Humidity;BMP_temperature;BMP_pressure;BME280_temperature;BME280_humidity;BME280_pressure;Samples;Min_cycle;Max_cycle;Signal;HPM_P1;HPM_P2
2020/12/21 00:02:00;;;;;;;18.73;9.98;;;;;;;27.43;31.33;97253.00;4953263;28;20065;-33
2020/12/21 00:04:25;;;;;;;17.27;10.15;;;;;;;27.43;31.44;97255.63;4960952;28;20042;-39
2020/12/21 00:06:52;;;;;;;20.83;9.88;;;;;;;27.42;31.52;97256.56;4955290;28;20047;-36
2020/12/21 00:09:18;;;;;;;15.52;8.50;;;;;;;27.42;31.51;97251.31;4957127;28;20627;-36
2020/12/21 00:11:43;;;;;;;16.40;9.23;;;;;;;27.42;31.54;97256.56;4962671;28;20153;-33
2020/12/21 00:14:09;;;;;;;18.45;9.73;;;;;;;27.41;31.38;97258.34;4961969;28;20042;-33
2020/12/21 00:16:41;;;;;;;15.73;9.32;;;;;;;27.41;31.41;97260.16;4956787;28;20510;-35
2020/12/21 00:19:07;;;;;;;16.52;8.90;;;;;;;27.41;31.42;97258.34;4955981;28;20050;-34
2020/12/21 00:21:34;;;;;;;15.88;9.50;;;;;;;27.41;31.45;97260.16;4953266;28;20042;-34
2020/12/21 00:23:59;;;;;;;19.83;8.98;;;;;;;27.41;31.45;97260.97;4960148;28;20051;-32
2020/12/21 00:26:25;;;;;;;16.58;8.75;;;;;;;27.40;31.45;97259.28;4959955;28;20042;-35
2020/12/21 00:28:51;;;;;;;17.70;9.38;;;;;;;27.41;31.44;97268.03;4964170;28;20050;-34
2020/12/21 00:31:24;;;;;;;14.52;8.57;;;;;;;27.40;31.41;97261.91;4954139;28;20043;-34
2020/12/21 00:33:49;;;;;;;16.35;8.52;;;;;;;27.39;31.43;97253.16;4961531;28;20070;-33
2020/12/21 00:36:15;;;;;;;12.75;8.07;;;;;;;27.39;31.44;97252.31;4953535;28;20046;-34
2020/12/21 00:38:41;;;;;;;15.38;9.27;;;;;;;27.39;31.38;97263.69;4960219;28;20043;-35
2020/12/21 00:41:08;;;;;;;15.05;9.00;;;;;;;27.41;31.37;97260.16;4953361;28;20043;-38
2020/12/21 00:43:34;;;;;;;16.10;8.60;;;;;;;27.41;31.41;97260.16;4952260;28;20070;-36
2020/12/21 00:45:59;;;;;;;16.83;8.38;;;;;;;27.41;31.25;97265.41;4954653;28;21125;-36
2020/12/21 00:48:28;;;;;;;17.63;8.85;;;;;;;27.42;31.34;97261.84;4961745;28;20043;-35
2020/12/21 00:50:54;;;;;;;13.57;7.82;;;;;;;27.41;31.35;97260.97;4962963;28;20042;-33
2020/12/21 00:53:20;;;;;;;15.55;7.88;;;;;;;27.39;31.38;97263.69;4963371;28;20130;-35
2020/12/21 00:55:45;;;;;;;16.15;8.50;;;;;;;27.39;31.36;97255.78;4954658;28;20057;-32
2020/12/21 00:58:11;;;;;;;16.88;8.07;;;;;;;27.39;31.28;97253.16;4956298;28;20545;-33
2020/12/21 01:00:36;;;;;;;11.82;7.03;;;;;;;27.38;31.19;97255.88;4956465;28;20055;-36
2020/12/21 01:03:02;;;;;;;18.52;8.23;;;;;;;27.39;31.32;97260.22;4954254;28;20035;-33
2020/12/21 01:05:28;;;;;;;14.23;7.53;;;;;;;27.37;31.28;97265.56;4958321;28;20069;-33
2020/12/21 01:07:53;;;;;;;15.45;7.47;;;;;;;27.38;31.15;97267.25;4951742;28;20585;-35
2020/12/21 01:10:20;;;;;;;14.07;7.80;;;;;;;27.39;31.30;97263.69;4960375;28;20055;-34
2020/12/21 01:12:46;;;;;;;15.95;7.60;;;;;;;27.41;31.34;97268.03;4961496;28;20501;-36
2020/12/21 01:15:11;;;;;;;12.82;7.85;;;;;;;27.41;31.27;97275.94;4963452;28;20043;-36
2020/12/21 01:17:37;;;;;;;12.90;7.25;;;;;;;27.38;31.23;97267.25;4962372;28;20638;-38
2020/12/21 01:20:04;;;;;;;12.60;7.68;;;;;;;27.36;31.33;97269.13;4957727;28;20030;-35
2020/12/21 01:22:30;;;;;;;13.27;7.38;;;;;;;27.37;31.37;97270.81;4959921;28;20038;-34
2020/12/21 01:24:56;;;;;;;10.77;7.07;;;;;;;27.36;31.35;97261.25;4964982;28;20058;-33
2020/12/21 01:27:21;;;;;;;11.18;6.95;;;;;;;27.36;31.34;97263.88;4957296;28;20122;-35
2020/12/21 01:29:47;;;;;;;14.30;6.82;;;;;;;27.36;31.37;97258.59;4959839;28;20085;-40
2020/12/21 01:32:13;;;;;;;10.68;6.68;;;;;;;27.37;31.25;97265.56;4954944;28;20503;-34
2020/12/21 01:34:38;;;;;;;11.73;6.70;;;;;;;27.36;31.25;97274.41;4964065;28;20644;-33
2020/12/21 01:37:04;;;;;;;12.27;7.18;;;;;;;27.36;31.27;97268.28;4957765;28;20527;-35
2020/12/21 01:39:30;;;;;;;13.65;6.95;;;;;;;27.35;31.24;97266.56;4955065;28;20135;-34
2020/12/21 01:41:56;;;;;;;10.43;6.30;;;;;;;27.34;31.28;97264.88;4949718;28;20110;-36
2020/12/21 01:44:22;;;;;;;14.35;6.47;;;;;;;27.35;31.09;97259.50;4958761;28;20507;-34
2020/12/21 01:46:47;;;;;;;9.82;6.30;;;;;;;27.34;31.28;97270.97;4964269;28;20042;-33
2020/12/21 01:49:13;;;;;;;10.48;6.28;;;;;;;27.35;31.27;97282.38;4960622;28;20043;-33
2020/12/21 01:51:38;;;;;;;10.55;6.45;;;;;;;27.35;31.33;97280.56;4960303;28;20054;-33
2020/12/21 01:54:04;;;;;;;10.07;6.13;;;;;;;27.33;31.33;97274.53;4957398;28;20133;-35
2020/12/21 01:56:30;;;;;;;13.60;5.97;;;;;;;27.31;31.26;97271.13;4961999;28;20047;-35
2020/12/21 01:58:55;;;;;;;13.43;6.47;;;;;;;27.29;31.29;97275.63;4962993;28;20693;-33
2020/12/21 02:01:21;;;;;;;9.60;5.55;;;;;;;27.30;31.24;97268.59;4957723;28;20038;-34
2020/12/21 02:03:48;;;;;;;9.77;5.88;;;;;;;27.29;31.26;97267.75;4958583;28;20042;-36
2020/12/21 02:06:13;;;;;;;9.88;5.93;;;;;;;27.27;31.28;97266.97;4962375;28;20356;-35
2020/12/21 02:08:39;;;;;;;8.43;5.60;;;;;;;27.28;31.19;97271.31;4959053;28;20656;-34
2020/12/21 02:11:05;;;;;;;8.85;5.43;;;;;;;27.30;31.27;97274.69;4963121;28;21045;-35
2020/12/21 02:13:31;;;;;;;8.30;5.70;;;;;;;27.29;31.27;97270.38;4964555;28;20069;-35
2020/12/21 02:15:57;;;;;;;9.80;5.97;;;;;;;27.30;31.24;97268.59;4956591;28;20043;-36
2020/12/21 02:18:23;;;;;;;8.60;5.28;;;;;;;27.30;31.25;97258.91;4962693;28;20039;-35
2020/12/21 02:20:48;;;;;;;10.45;5.57;;;;;;;27.30;31.28;97258.91;4963685;28;20129;-36
2020/12/21 02:23:16;;;;;;;8.52;5.32;;;;;;;27.29;31.17;97251.94;4963487;28;20051;-33
2020/12/21 02:25:41;;;;;;;9.40;5.43;;;;;;;27.27;31.25;97249.41;4961115;28;20039;-33
2020/12/21 02:28:07;;;;;;;10.73;5.10;;;;;;;27.27;31.31;97259.91;4961451;28;20041;-35
2020/12/21 02:30:33;;;;;;;8.50;4.97;;;;;;;27.27;31.28;97253.81;4963185;28;20042;-36
2020/12/21 02:33:00;;;;;;;10.65;5.55;;;;;;;27.27;31.15;97248.56;4957122;28;20102;-32
2020/12/21 02:35:25;;;;;;;8.82;5.13;;;;;;;27.26;31.17;97239.81;4967781;28;20035;-35
2020/12/21 02:37:51;;;;;;;9.57;5.50;;;;;;;27.26;31.21;97244.22;4961392;28;20046;-33
2020/12/21 02:40:17;;;;;;;8.57;4.82;;;;;;;27.24;31.17;97243.44;4963541;28;20066;-36
2020/12/21 02:42:43;;;;;;;7.28;5.00;;;;;;;27.24;31.30;97248.72;4959480;28;20043;-32
2020/12/21 02:45:09;;;;;;;10.77;5.40;;;;;;;27.23;31.21;97236.50;4961093;28;20110;-38
2020/12/21 02:47:36;;;;;;;8.52;4.93;;;;;;;27.23;31.20;97244.38;4959552;28;20051;-37
2020/12/21 02:50:02;;;;;;;8.13;5.03;;;;;;;27.23;31.24;97237.31;4964363;28;20069;-36
2020/12/21 02:52:29;;;;;;;7.40;4.90;;;;;;;27.22;31.20;97255.81;4955181;28;20117;-33
2020/12/21 02:54:55;;;;;;;9.68;4.82;;;;;;;27.23;31.43;97247.84;4960273;28;20070;-34
2020/12/21 02:57:22;;;;;;;8.50;4.85;;;;;;;27.25;31.28;97245.16;4959097;28;20038;-37
2020/12/21 02:59:48;;;;;;;7.80;4.57;;;;;;;27.26;31.19;97238.94;4964899;28;20039;-35
2020/12/21 03:02:13;;;;;;;7.88;4.68;;;;;;;27.24;31.10;97236.38;4951583;28;20909;-33
2020/12/21 03:04:39;;;;;;;9.32;4.70;;;;;;;27.24;31.20;97240.81;4962273;28;20464;-37
2020/12/21 03:07:04;;;;;;;7.32;4.75;;;;;;;27.25;31.13;97239.88;4959309;28;20042;-33
2020/12/21 03:09:30;;;;;;;5.63;3.97;;;;;;;27.24;31.27;97244.28;4959845;28;20035;-36
2020/12/21 03:11:55;;;;;;;8.43;4.60;;;;;;;27.24;31.20;97248.72;4961572;28;20042;-39
2020/12/21 03:14:21;;;;;;;6.53;4.20;;;;;;;27.19;31.12;97240.22;4963346;28;20460;-38
2020/12/21 03:16:46;;;;;;;8.40;4.80;;;;;;;27.24;31.12;97238.19;4961130;28;20525;-35
2020/12/21 03:19:11;;;;;;;6.63;4.50;;;;;;;27.25;31.05;97245.16;4957379;28;20039;-35
2020/12/21 03:21:37;;;;;;;5.85;4.03;;;;;;;27.27;31.18;97243.31;4960902;28;20039;-41
2020/12/21 03:24:02;;;;;;;7.18;4.28;;;;;;;27.25;31.05;97245.16;4958798;28;20566;-35
2020/12/21 03:26:29;;;;;;;7.25;4.32;;;;;;;27.25;31.15;97245.16;4956120;28;20519;-37
2020/12/21 03:28:54;;;;;;;8.13;4.13;;;;;;;27.23;31.12;97245.22;4959837;28;20101;-36
2020/12/21 03:31:20;;;;;;;6.25;4.07;;;;;;;27.22;31.09;97237.41;4957699;28;20046;-33
2020/12/21 03:33:45;;;;;;;7.45;4.40;;;;;;;27.23;31.25;97244.38;4955984;28;20054;-36
2020/12/21 03:36:12;;;;;;;6.38;4.07;;;;;;;27.22;31.26;97247.94;4961725;28;20053;-35
2020/12/21 03:38:37;;;;;;;6.25;4.13;;;;;;;27.22;31.10;97240.03;4965097;28;20516;-34
2020/12/21 03:41:03;;;;;;;6.47;4.05;;;;;;;27.21;31.07;97238.34;4956822;28;20043;-41
2020/12/21 03:43:30;;;;;;;6.07;3.80;;;;;;;27.21;31.12;97238.34;4956350;28;20034;-38
2020/12/21 03:45:55;;;;;;;5.47;3.72;;;;;;;27.19;31.32;97229.69;4962600;28;20713;-36
2020/12/21 03:48:20;;;;;;;7.03;4.13;;;;;;;27.19;31.15;97227.06;4955357;28;20054;-33
2020/12/21 03:50:46;;;;;;;7.57;4.10;;;;;;;27.20;31.09;97234.00;4949253;28;20473;-34
2020/12/21 03:53:12;;;;;;;6.18;3.85;;;;;;;27.20;31.11;97226.13;4963530;28;20673;-37
2020/12/21 03:55:38;;;;;;;5.97;3.90;;;;;;;27.21;31.03;97225.19;4951068;28;20532;-38
2020/12/21 03:58:04;;;;;;;6.07;3.80;;;;;;;27.21;31.12;97225.19;4949295;28;20057;-40
2020/12/21 04:00:29;;;;;;;6.75;3.83;;;;;;;27.20;31.02;97226.13;4951063;28;20039;-36
2020/12/21 04:02:55;;;;;;;5.93;3.38;;;;;;;27.18;30.94;97218.31;4958736;28;20544;-38
2020/12/21 04:05:21;;;;;;;5.18;3.47;;;;;;;27.18;31.03;97217.44;4954689;28;20114;-34
2020/12/21 04:07:46;;;;;;;6.25;3.60;;;;;;;27.17;30.96;97219.25;4960278;28;20501;-37
2020/12/21 04:10:12;;;;;;;5.90;3.75;;;;;;;27.17;30.90;97210.50;4960353;28;20042;-38
2020/12/21 04:12:39;;;;;;;6.65;3.83;;;;;;;27.15;31.01;97218.47;4961265;28;20058;-37
2020/12/21 04:15:05;;;;;;;5.15;3.28;;;;;;;27.16;31.00;97219.31;4962281;28;20046;-33
2020/12/21 04:17:30;;;;;;;5.35;3.22;;;;;;;27.18;30.98;97225.34;4956803;28;20053;-37
2020/12/21 04:19:56;;;;;;;4.65;3.38;;;;;;;27.16;31.04;97219.31;4957549;28;20058;-34
2020/12/21 04:22:23;;;;;;;5.15;3.35;;;;;;;27.16;31.01;97221.94;4971631;28;20039;-34
2020/12/21 04:24:48;;;;;;;5.00;3.08;;;;;;;27.11;30.98;97222.16;4959170;28;20508;-39
2020/12/21 04:27:14;;;;;;;5.45;3.22;;;;;;;27.16;31.39;97219.31;4965306;28;20165;-34
2020/12/21 04:29:39;;;;;;;7.00;3.47;;;;;;;27.16;30.97;97214.91;4950498;28;20039;-39
2020/12/21 04:32:06;;;;;;;9.45;3.40;;;;;;;27.16;30.97;97219.31;4969471;28;20081;-36
2020/12/21 04:34:31;;;;;;;3.97;2.90;;;;;;;27.15;30.96;97222.88;4958416;28;20392;-33
2020/12/21 04:36:56;;;;;;;5.82;3.25;;;;;;;27.15;30.92;97213.19;4954884;28;20039;-36
2020/12/21 04:39:22;;;;;;;5.68;3.13;;;;;;;27.15;31.01;97213.19;4962721;28;20052;-37
2020/12/21 04:41:54;;;;;;;4.28;2.72;;;;;;;27.15;30.93;97207.09;4956511;28;20030;-34
2020/12/21 04:44:20;;;;;;;4.20;3.03;;;;;;;27.15;31.01;97201.84;4952911;28;20089;-37
2020/12/21 04:46:47;;;;;;;5.32;2.90;;;;;;;27.16;30.92;97196.50;4949980;28;20548;-33
2020/12/21 04:49:14;;;;;;;4.38;3.05;;;;;;;27.14;30.92;97195.72;4962487;28;20046;-39
2020/12/21 04:51:40;;;;;;;3.90;2.90;;;;;;;27.16;30.93;97208.78;4973573;28;20050;-34
2020/12/21 04:54:08;;;;;;;5.10;3.05;;;;;;;27.15;30.94;97202.66;4952814;28;20603;-33
2020/12/21 04:56:34;;;;;;;4.85;2.95;;;;;;;27.13;31.02;97199.28;4959474;28;20078;-36
2020/12/21 04:59:00;;;;;;;4.78;3.10;;;;;;;27.15;30.88;97199.22;4945555;28;20038;-37
2020/12/21 05:01:26;;;;;;;4.60;3.17;;;;;;;27.13;30.92;97197.50;4951348;28;20509;-36
2020/12/21 05:03:51;;;;;;;8.48;3.00;;;;;;;27.14;30.92;97211.50;4953036;28;20136;-36
2020/12/21 05:06:17;;;;;;;5.80;2.90;;;;;;;27.13;30.88;97205.41;4956217;28;20050;-30
2020/12/21 05:08:44;;;;;;;5.40;2.85;;;;;;;27.13;30.96;97192.25;4960516;28;20049;-35
2020/12/21 05:11:09;;;;;;;3.35;2.53;;;;;;;27.12;30.96;97193.16;4958446;28;20296;-37
2020/12/21 05:13:35;;;;;;;4.65;2.80;;;;;;;27.11;30.92;97186.22;4973918;28;20035;-35
2020/12/21 05:16:01;;;;;;;3.55;2.65;;;;;;;27.11;30.96;97187.97;4962426;28;20101;-35
2020/12/21 05:18:27;;;;;;;3.90;2.83;;;;;;;27.11;31.06;97186.22;4954879;28;20038;-36
2020/12/21 05:20:59;;;;;;;4.75;2.60;;;;;;;27.11;30.90;97191.47;4959970;28;20074;-35
2020/12/21 05:23:24;;;;;;;3.95;2.80;;;;;;;27.10;31.00;97189.78;4960644;28;20041;-37
2020/12/21 05:26:06;;;;;;;3.03;2.30;;;;;;;27.09;30.90;97176.69;4962351;28;20039;-36
2020/12/21 05:28:36;;;;;;;3.60;2.47;;;;;;;27.10;30.86;97183.66;4959734;28;20516;-38
2020/12/21 05:31:09;;;;;;;4.80;3.00;;;;;;;27.10;30.99;97189.78;4954808;28;20061;-35
2020/12/21 05:33:40;;;;;;;3.22;2.40;;;;;;;27.10;30.83;97188.91;4952070;28;20659;-34
2020/12/21 05:36:09;;;;;;;3.30;2.42;;;;;;;27.08;31.02;97191.63;4963438;28;20077;-37
2020/12/21 05:38:35;;;;;;;3.38;2.30;;;;;;;27.07;30.98;97189.94;4956160;28;20030;-33
2020/12/21 05:41:08;;;;;;;3.10;2.28;;;;;;;27.07;30.99;97197.81;4959707;28;20186;-34
2020/12/21 05:43:36;;;;;;;3.80;2.50;;;;;;;27.07;30.95;97204.84;4961984;28;20042;-35
2020/12/21 05:46:14;;;;;;;3.80;2.30;;;;;;;27.07;31.07;97208.34;4957857;28;20130;-36
2020/12/21 05:48:44;;;;;;;3.35;2.10;;;;;;;27.07;30.95;97220.63;4960145;28;20054;-37
2020/12/21 05:51:10;;;;;;;3.20;2.38;;;;;;;27.07;30.99;97208.34;4962565;28;20070;-35
2020/12/21 05:53:42;;;;;;;2.70;1.90;;;;;;;27.07;30.92;97216.22;4954424;28;20173;-38
2020/12/21 05:56:08;;;;;;;4.15;2.25;;;;;;;27.07;30.86;97210.09;4958536;28;20058;-36
2020/12/21 05:58:34;;;;;;;3.70;2.05;;;;;;;27.06;30.87;97214.53;4965082;28;20042;-41
2020/12/21 06:01:10;;;;;;;3.10;2.55;;;;;;;27.06;30.89;97214.53;4957006;28;20682;-33
2020/12/21 06:03:41;;;;;;;3.30;2.35;;;;;;;27.04;31.04;97216.38;4957400;28;20696;-35
2020/12/21 06:06:07;;;;;;;3.90;2.45;;;;;;;27.03;30.92;97224.38;4952928;28;20043;-37
2020/12/21 06:08:34;;;;;;;3.20;1.95;;;;;;;27.00;30.90;97220.97;4961004;28;20051;-34
2020/12/21 06:11:09;;;;;;;3.30;2.13;;;;;;;27.01;31.04;97219.19;4958643;28;20049;-35
2020/12/21 06:13:36;;;;;;;3.03;2.17;;;;;;;27.02;30.89;97220.88;4980643;28;20500;-38
2020/12/21 06:16:01;;;;;;;3.78;2.42;;;;;;;27.02;31.03;97222.66;4945558;28;20050;-34
2020/12/21 06:18:27;;;;;;;2.83;2.05;;;;;;;27.02;30.98;97227.91;4977531;28;20030;-34
2020/12/21 06:20:52;;;;;;;2.85;1.95;;;;;;;27.01;31.16;97216.56;4961946;28;20047;-34
2020/12/21 06:23:23;;;;;;;2.92;1.90;;;;;;;27.00;30.95;97215.69;4964526;28;20057;-37
2020/12/21 06:25:48;;;;;;;3.25;1.98;;;;;;;27.00;30.86;97220.09;4956381;28;20081;-37
2020/12/21 06:28:13;;;;;;;3.05;2.03;;;;;;;26.98;30.99;97199.16;4962025;28;20050;-37
2020/12/21 06:30:39;;;;;;;2.88;2.08;;;;;;;26.99;30.97;97202.63;4973043;28;20073;-38
2020/12/21 06:33:05;;;;;;;3.08;2.05;;;;;;;26.99;31.06;97200.00;4963733;28;20045;-34
2020/12/21 06:35:40;;;;;;;2.50;2.00;;;;;;;26.99;31.01;97192.97;4959387;28;20053;-37
2020/12/21 06:38:06;;;;;;;2.85;2.05;;;;;;;26.97;30.94;97172.94;4957327;28;20404;-36
2020/12/21 06:40:33;;;;;;;2.67;2.00;;;;;;;26.97;31.04;97165.03;4955584;28;20043;-38
2020/12/21 06:43:14;;;;;;;4.88;2.10;;;;;;;26.96;30.87;97181.75;4957328;28;20039;-34
2020/12/21 06:45:40;;;;;;;4.13;1.88;;;;;;;26.95;30.83;97190.56;4952904;28;20046;-35
2020/12/21 06:48:06;;;;;;;4.28;2.00;;;;;;;26.94;31.10;97188.84;4965995;28;20043;-37
2020/12/21 06:50:33;;;;;;;8.20;2.58;;;;;;;26.94;30.90;97196.72;4958858;28;20078;-33
2020/12/21 06:52:59;;;;;;;4.82;2.50;;;;;;;26.94;30.55;97184.47;4957782;28;20054;-37
2020/12/21 06:55:34;;;;;;;9.10;2.00;;;;;;;26.93;30.88;97182.72;4962449;28;20043;-34
2020/12/21 06:58:01;;;;;;;13.68;2.20;;;;;;;26.90;30.91;97177.63;4966613;28;20042;-35
2020/12/21 07:00:26;;;;;;;6.30;2.92;;;;;;;26.86;28.83;97171.66;4948169;28;20047;-37
2020/12/21 07:02:52;;;;;;;3.60;2.50;;;;;;;26.83;30.60;97168.34;4956460;28;20039;-36
2020/12/21 07:05:19;;;;;;;2.38;1.83;;;;;;;26.84;30.79;97159.53;4953179;28;20047;-37
2020/12/21 07:07:44;;;;;;;6.03;2.35;;;;;;;26.82;30.52;97157.00;4956127;28;20034;-35
2020/12/21 07:10:13;;;;;;;2.55;1.73;;;;;;;26.82;30.66;97153.50;4955886;28;20159;-39
2020/12/21 07:12:39;;;;;;;5.82;2.03;;;;;;;26.82;30.73;97137.72;4949340;28;20054;-35
2020/12/21 07:15:05;;;;;;;3.33;2.10;;;;;;;26.81;30.83;97147.38;4955721;28;20069;-40
2020/12/21 07:17:31;;;;;;;3.17;2.28;;;;;;;26.78;30.90;97144.94;4951995;28;20543;-34
2020/12/21 07:19:58;;;;;;;3.40;2.13;;;;;;;26.79;30.84;97144.00;4954346;28;20061;-33
2020/12/21 07:22:24;;;;;;;3.13;1.85;;;;;;;26.78;31.00;97144.94;4951614;28;20034;-35
2020/12/21 07:24:50;;;;;;;3.47;1.90;;;;;;;26.78;31.06;97142.31;4970196;28;20416;-38
2020/12/21 07:27:15;;;;;;;3.65;2.00;;;;;;;26.79;31.06;97154.50;4968856;28;20051;-37
2020/12/21 07:29:42;;;;;;;7.38;2.00;;;;;;;26.79;31.10;97159.78;4954521;28;20125;-37
2020/12/21 07:32:08;;;;;;;3.45;2.00;;;;;;;26.81;31.04;97159.69;4953308;28;20038;-34
2020/12/21 07:34:33;;;;;;;3.92;2.20;;;;;;;26.81;30.61;97157.91;4953961;28;20054;-38
2020/12/21 07:37:05;;;;;;;8.45;1.92;;;;;;;26.82;31.08;97164.88;4956212;28;20069;-37
2020/12/21 07:39:30;;;;;;;;;;;;;;;26.81;31.17;97176.31;4969317;28;20627;-38
2020/12/21 07:41:57;;;;;;;1.90;1.63;;;;;;;26.81;31.25;97173.69;4951815;28;20007;-37
2020/12/21 07:44:27;;;;;;;3.72;2.13;;;;;;;26.81;31.06;97178.94;4968557;28;20056;-34
2020/12/21 07:46:58;;;;;;;5.25;1.85;;;;;;;26.82;31.24;97185.91;4952968;28;20053;-36
2020/12/21 07:49:23;;;;;;;3.38;2.05;;;;;;;26.82;31.17;97185.06;4951682;28;20129;-35
2020/12/21 07:51:49;;;;;;;2.60;1.98;;;;;;;26.82;31.20;97179.81;4954055;28;20038;-36
2020/12/21 07:54:15;;;;;;;2.95;1.80;;;;;;;26.80;31.30;97185.13;4954812;28;20118;-35
2020/12/21 07:56:40;;;;;;;1.85;1.65;;;;;;;26.78;31.19;97173.84;4968550;28;20043;-35
2020/12/21 07:59:14;;;;;;;3.45;1.70;;;;;;;26.76;31.42;97174.88;4956046;28;20650;-32
2020/12/21 08:01:41;;;;;;;3.42;1.77;;;;;;;26.74;31.34;97170.50;4964221;28;20319;-35
2020/12/21 08:04:13;;;;;;;6.85;1.90;;;;;;;26.73;31.27;97165.34;4954146;28;20452;-33
2020/12/21 08:06:38;;;;;;;12.82;2.60;;;;;;;26.73;30.33;97173.22;4969430;28;20416;-35
2020/12/21 08:09:06;;;;;;;5.88;2.90;;;;;;;26.70;29.82;97168.97;4938371;28;20041;-33
2020/12/21 08:11:32;;;;;;;8.07;2.25;;;;;;;26.72;30.43;97179.41;4970080;28;20138;-34
2020/12/21 08:13:57;;;;;;;14.77;2.80;;;;;;;26.74;30.40;97174.94;4941175;28;21474;-34
2020/12/21 08:16:23;;;;;;;16.63;2.42;;;;;;;26.77;30.44;97174.75;4947028;28;20054;-34
2020/12/21 08:18:50;;;;;;;11.20;2.13;;;;;;;26.79;30.67;97180.81;4958407;28;20754;-33
2020/12/21 08:21:16;;;;;;;7.10;2.33;;;;;;;26.79;30.71;97183.44;4950737;28;20057;-39
2020/12/21 08:23:41;;;;;;;5.72;2.20;;;;;;;26.79;30.66;97180.81;4962683;28;20050;-37
2020/12/21 08:26:16;;;;;;;6.75;2.05;;;;;;;26.77;30.77;97190.53;4953818;28;20094;-36
2020/12/21 08:28:42;;;;;;;9.43;2.13;;;;;;;26.77;30.66;97185.28;4954374;28;20389;-33
2020/12/21 08:31:18;;;;;;;3.40;2.10;;;;;;;26.75;31.15;97184.53;4957374;28;20105;-39
2020/12/21 08:34:02;;;;;;;5.28;2.10;;;;;;;26.71;31.13;97188.22;4955565;28;20035;-37
2020/12/21 08:36:32;;;;;;;8.38;2.15;;;;;;;26.70;31.23;97191.78;4954165;28;20142;-35
2020/12/21 08:39:05;;;;;;;8.40;4.55;;;;;;;26.60;25.59;97187.00;4956028;28;20046;-43
2020/12/21 08:41:37;;;;;;;6.80;4.90;;;;;;;26.23;22.82;97181.75;4962050;28;20100;-34
2020/12/21 08:44:07;;;;;;;8.00;5.63;;;;;;;25.71;22.67;97198.22;4954247;28;20026;-34
2020/12/21 08:46:32;;;;;;;11.43;5.38;;;;;;;25.22;23.88;97202.13;4952871;28;20586;-35
2020/12/21 08:48:58;;;;;;;10.77;5.05;;;;;;;25.04;26.52;97209.88;4950696;28;20043;-37
2020/12/21 08:51:26;;;;;;;8.55;4.82;;;;;;;25.02;26.95;97203.84;4951359;28;20078;-36
2020/12/21 08:53:53;;;;;;;8.48;4.38;;;;;;;25.08;27.77;97199.22;4966680;28;20046;-34
2020/12/21 08:56:18;;;;;;;7.22;4.10;;;;;;;25.15;28.08;97205.94;4960916;28;20681;-36
2020/12/21 08:58:44;;;;;;;5.95;4.07;;;;;;;25.21;28.49;97205.69;4950151;28;20085;-33
2020/12/21 09:01:09;;;;;;;7.88;4.30;;;;;;;25.29;28.42;97210.56;4963278;28;20053;-35
2020/12/21 09:03:35;;;;;;;8.30;4.28;;;;;;;25.37;28.60;97212.84;4952155;28;20038;-33
2020/12/21 09:06:01;;;;;;;7.95;4.30;;;;;;;25.42;28.69;97197.75;4958199;28;20892;-35
2020/12/21 09:08:27;;;;;;;5.53;3.65;;;;;;;25.48;29.06;97210.59;4954453;28;20036;-34
2020/12/21 09:10:53;;;;;;;7.47;3.95;;;;;;;25.54;29.08;97204.19;4954357;28;20153;-35
2020/12/21 09:13:18;;;;;;;8.25;3.78;;;;;;;25.57;29.30;97210.22;4959603;28;20050;-40
2020/12/21 09:15:44;;;;;;;15.73;5.45;;;;;;;25.60;29.40;97213.59;4955894;28;20122;-34
2020/12/21 09:18:10;;;;;;;8.77;3.67;;;;;;;25.63;29.35;97213.47;4955120;28;20051;-35
2020/12/21 09:20:35;;;;;;;14.82;4.18;;;;;;;25.69;29.62;97215.81;4953264;28;20034;-39
2020/12/21 09:23:01;;;;;;;10.95;4.28;;;;;;;25.74;29.75;97208.56;4953320;28;20050;-32
2020/12/21 09:25:26;;;;;;;9.07;3.53;;;;;;;25.79;29.62;97206.59;4971700;28;20097;-35
2020/12/21 09:27:52;;;;;;;7.97;3.70;;;;;;;25.85;29.73;97209.88;4953134;28;20536;-33
2020/12/21 09:30:17;;;;;;;7.45;3.47;;;;;;;25.88;29.82;97213.19;4958134;28;20921;-34
2020/12/21 09:32:43;;;;;;;10.40;3.90;;;;;;;25.93;29.82;97210.34;4966847;28;20038;-36
2020/12/21 09:35:08;;;;;;;8.20;3.50;;;;;;;25.95;29.96;97205.88;4956807;28;20043;-35
2020/12/21 09:37:34;;;;;;;10.75;4.05;;;;;;;25.99;29.85;97202.19;4954817;28;20046;-36
2020/12/21 09:40:00;;;;;;;8.43;3.55;;;;;;;26.00;30.04;97192.53;4956660;28;20049;-36
2020/12/21 09:42:25;;;;;;;11.13;3.95;;;;;;;26.05;30.13;97188.75;4957997;28;20089;-35
2020/12/21 09:44:51;;;;;;;8.20;3.60;;;;;;;26.06;30.25;97193.09;4961424;28;20047;-37
2020/12/21 09:47:17;;;;;;;11.93;4.10;;;;;;;26.07;30.36;97194.78;4962012;28;20050;-35
2020/12/21 09:49:43;;;;;;;9.80;3.38;;;;;;;26.09;30.54;97187.66;4963128;28;20039;-38
2020/12/21 09:52:09;;;;;;;9.82;3.83;;;;;;;26.12;30.43;97191.09;4950912;28;20432;-37
2020/12/21 09:54:35;;;;;;;8.98;3.47;;;;;;;26.13;30.41;97187.53;4955825;28;20112;-37
2020/12/21 09:57:01;;;;;;;8.50;3.22;;;;;;;26.16;30.53;97184.75;4955996;28;20535;-42
2020/12/21 09:59:27;;;;;;;11.13;3.13;;;;;;;26.19;30.62;97181.97;4954369;28;20078;-37
2020/12/21 10:01:53;;;;;;;10.02;3.20;;;;;;;26.22;30.61;97187.09;4953236;28;20129;-36
2020/12/21 10:04:19;;;;;;;11.93;3.42;;;;;;;26.25;30.78;97189.56;4958034;28;20035;-33
2020/12/21 10:06:48;;;;;;;10.82;3.50;;;;;;;26.27;30.77;97189.53;4957015;28;20681;-37
2020/12/21 10:09:14;;;;;;;10.35;3.42;;;;;;;26.29;30.77;97178.03;4955455;28;20046;-33
2020/12/21 10:11:40;;;;;;;5.57;2.85;;;;;;;26.31;30.73;97181.41;4955832;28;20050;-38
2020/12/21 10:14:05;;;;;;;6.90;3.05;;;;;;;26.34;30.58;97183.03;4955575;28;20389;-34
2020/12/21 10:16:31;;;;;;;9.30;3.25;;;;;;;26.31;30.82;97176.16;4954965;28;20055;-34
2020/12/21 10:18:57;;;;;;;5.85;3.00;;;;;;;26.32;30.99;97164.72;4958769;28;20038;-35
2020/12/21 10:21:22;;;;;;;10.98;3.10;;;;;;;26.33;31.10;97158.56;4963303;28;20051;-37
2020/12/21 10:23:48;;;;;;;11.98;3.03;;;;;;;26.31;31.08;97160.38;4959256;28;20042;-36
2020/12/21 10:26:14;;;;;;;8.75;3.35;;;;;;;26.33;31.03;97155.06;4962868;28;20027;-37
2020/12/21 10:28:40;;;;;;;4.90;2.55;;;;;;;26.29;31.08;97149.13;4966372;28;20097;-37
2020/12/21 10:31:06;;;;;;;6.22;2.88;;;;;;;26.29;31.05;97146.50;4958704;28;20043;-35
2020/12/21 10:33:32;;;;;;;8.02;3.35;;;;;;;26.28;31.33;97144.78;4959153;28;20114;-36
2020/12/21 10:35:57;;;;;;;11.23;3.30;;;;;;;26.30;31.54;97150.81;4956527;28;20146;-34
2020/12/21 10:38:23;;;;;;;8.88;3.30;;;;;;;26.29;31.47;97148.25;4955327;28;20042;-36
2020/12/21 10:40:48;;;;;;;7.82;3.30;;;;;;;26.27;31.74;97143.06;4954974;28;20035;-36
2020/12/21 10:43:14;;;;;;;9.65;2.83;;;;;;;26.28;31.65;97144.78;4955907;28;20055;-38
2020/12/21 10:45:40;;;;;;;9.63;3.08;;;;;;;26.27;31.74;97137.00;4955736;28;20831;-39
2020/12/21 10:48:05;;;;;;;9.35;3.05;;;;;;;26.28;31.53;97134.25;4958570;28;20134;-38
2020/12/21 10:50:30;;;;;;;7.53;3.13;;;;;;;26.30;31.41;97127.16;4961708;28;20049;-37
2020/12/21 10:52:56;;;;;;;7.70;2.72;;;;;;;26.31;31.28;97120.97;4958381;28;20050;-37
2020/12/21 10:55:22;;;;;;;6.75;2.83;;;;;;;26.35;31.35;97119.91;4958342;28;20042;-39
2020/12/21 10:57:48;;;;;;;6.03;2.80;;;;;;;26.39;31.13;97114.50;4958300;28;20114;-37
2020/12/21 11:00:13;;;;;;;9.07;3.10;;;;;;;26.41;31.12;97108.25;4958440;28;20050;-38
2020/12/21 11:02:38;;;;;;;12.20;2.80;;;;;;;26.43;31.28;97109.00;4953899;28;20683;-39
2020/12/21 11:05:05;;;;;;;8.05;3.10;;;;;;;26.46;31.23;97111.47;4955775;28;20038;-37
2020/12/21 11:07:31;;;;;;;8.60;2.92;;;;;;;26.50;31.20;97117.41;4957001;28;20039;-40
2020/12/21 11:09:56;;;;;;;7.00;2.60;;;;;;;26.51;31.16;97108.63;4957701;28;20130;-37
2020/12/21 11:12:23;;;;;;;6.95;2.55;;;;;;;26.53;31.14;97106.75;4964796;28;20042;-37
2020/12/21 11:14:49;;;;;;;7.28;3.05;;;;;;;26.55;31.05;97115.41;4962186;28;20535;-39
2020/12/21 11:17:14;;;;;;;5.03;2.50;;;;;;;26.55;31.21;97112.78;4959171;28;20106;-37
2020/12/21 11:19:40;;;;;;;5.40;2.60;;;;;;;26.56;31.15;97111.88;4963921;28;20606;-38
2020/12/21 11:22:05;;;;;;;8.07;2.50;;;;;;;26.58;31.15;97115.25;4959765;28;20035;-38
2020/12/21 11:24:31;;;;;;;5.90;2.72;;;;;;;26.59;31.08;97116.94;4958228;28;20034;-39
2020/12/21 11:26:58;;;;;;;4.15;2.53;;;;;;;26.61;31.18;97104.59;4956915;28;20042;-38
2020/12/21 11:29:23;;;;;;;7.95;2.33;;;;;;;26.63;31.35;97122.06;4955509;28;20031;-38